El Dorado, Georgia
Current Conditions -  °F | °C
As of 2:50 PM on Thursday 23 Oct 2014 (Local Time) from KTMA Reporting Station
Clear Clear  
Wind Chill: 70°   Ceiling: Unl
Heat Index: 70°   Visibility: 10mi
Dew Point: 41°   Wind: 6mph
Humidity: 34%   Direction: 30°NNE
Pressure: 30.02"   Gusts: NA
Location:  31.2647°N, 83.4365°W
Report Text: KTMA 231850Z AUTO 03005KT 10SM CLR 21/05 A3002 RMK AO2 T02120048
Loading
Personal Weather Stations






























Interactive Weather Map
Tropical Storm Tracking
New forecast layout! Learn more

10-Day Weather Forecast

Advertisements
Track Severe Weather on mobile